createdAt,value
2022-12-13T00:02:20.286Z,101362.19
2022-12-13T00:04:50.032Z,101362.05
2022-12-13T00:07:19.765Z,101362.05
2022-12-13T00:09:49.515Z,101361.23
2022-12-13T00:12:19.267Z,101358.17
2022-12-13T00:14:49.025Z,101360.04
2022-12-13T00:17:18.750Z,101361.22
2022-12-13T00:19:49.214Z,101359.54
2022-12-13T00:22:19.218Z,101356.13
2022-12-13T00:24:48.971Z,101358.22
2022-12-13T00:27:18.712Z,101353.48
2022-12-13T00:29:49.415Z,101355.98
2022-12-13T00:32:19.081Z,101351.87
2022-12-13T00:34:48.842Z,101352.63
2022-12-13T00:37:18.586Z,101344.59
2022-12-13T00:39:48.630Z,101350.28
2022-12-13T00:42:18.130Z,101346.77
2022-12-13T00:44:47.873Z,101345.91
2022-12-13T00:47:18.913Z,101346.57
2022-12-13T00:49:48.653Z,101347.72
2022-12-13T00:52:18.090Z,101341.73
2022-12-13T00:54:47.839Z,101351.36
2022-12-13T00:57:17.573Z,101351.36
2022-12-13T00:59:47.995Z,101348.21
2022-12-13T01:02:17.514Z,101347.84
2022-12-13T01:04:49.029Z,101348.48
2022-12-13T01:07:18.767Z,101346.67
2022-12-13T01:09:48.506Z,101344.12
2022-12-13T01:12:18.321Z,101346.89
2022-12-13T01:14:53.062Z,101346.89
2022-12-13T01:17:19.575Z,101346.98
2022-12-13T01:19:50.578Z,101340.61
2022-12-13T01:22:20.402Z,101342.31
2022-12-13T01:24:50.199Z,101340.51
2022-12-13T01:27:19.938Z,101336.72
2022-12-13T01:29:49.672Z,101346.89
2022-12-13T01:32:19.413Z,101352.69
2022-12-13T01:34:49.462Z,101352.69
2022-12-13T01:37:20.370Z,101357.44
2022-12-13T01:39:51.812Z,101356.02
2022-12-13T01:42:23.205Z,101350.24
2022-12-13T01:45:02.498Z,101352.02
2022-12-13T01:47:35.370Z,101352.63
2022-12-13T01:50:09.723Z,101348.44
2022-12-13T01:52:40.596Z,101346.25
2022-12-13T01:55:12.846Z,101344.27
2022-12-13T01:57:45.889Z,101346.63
2022-12-13T02:00:16.769Z,101345.09
2022-12-13T02:02:48.452Z,101343.28
2022-12-13T02:05:29.672Z,101332.56
2022-12-13T02:08:01.058Z,101338.16
2022-12-13T02:10:31.956Z,101334.06
2022-12-13T02:13:01.704Z,101338.94
2022-12-13T02:15:36.931Z,101339.97
2022-12-13T02:18:23.132Z,101338.42
2022-12-13T02:21:15.478Z,101337.89
2022-12-13T02:24:08.766Z,101337.89
2022-12-13T02:26:43.158Z,101334.37
2022-12-13T02:29:30.540Z,101338.84
2022-12-13T02:32:07.537Z,101343.79
2022-12-13T02:34:52.125Z,101337.78
2022-12-13T02:37:25.062Z,101336.92
2022-12-13T02:40:03.752Z,101337.20
2022-12-13T02:42:36.556Z,101334.37
2022-12-13T02:45:20.673Z,101323.99
2022-12-13T02:47:50.098Z,101327.03
2022-12-13T02:50:22.287Z,101322.28
2022-12-13T02:52:53.165Z,101326.11
2022-12-13T02:55:27.915Z,101323.14
2022-12-13T02:57:54.505Z,101316.64
2022-12-13T03:00:32.641Z,101322.77
2022-12-13T03:03:23.202Z,101317.34
2022-12-13T03:06:16.580Z,101313.27
2022-12-13T03:08:52.449Z,101308.91
2022-12-13T03:11:24.854Z,101311.64
2022-12-13T03:14:00.511Z,101309.08
2022-12-13T03:16:36.633Z,101310.98
2022-12-13T03:19:09.233Z,101308.59
2022-12-13T03:21:47.339Z,101307.16
2022-12-13T03:24:13.394Z,101315.25
2022-12-13T03:26:43.211Z,101313.65
2022-12-13T03:29:13.125Z,101311.56
2022-12-13T03:31:45.081Z,101318.67
2022-12-13T03:34:14.846Z,101317.38
2022-12-13T03:36:46.648Z,101314.50
2022-12-13T03:39:16.692Z,101314.70
2022-12-13T03:41:46.608Z,101317.84
2022-12-13T03:44:16.366Z,101312.24
2022-12-13T03:46:46.723Z,101312.24
2022-12-13T03:49:17.496Z,101308.42
2022-12-13T03:51:47.796Z,101305.66
2022-12-13T03:54:19.109Z,101309.48
2022-12-13T03:56:48.840Z,101307.78
2022-12-13T03:59:18.702Z,101309.17
2022-12-13T04:01:48.581Z,101308.53
2022-12-13T04:04:18.138Z,101313.58
2022-12-13T04:06:47.889Z,101319.17
2022-12-13T04:09:17.627Z,101312.32
2022-12-13T04:12:05.190Z,101316.50
2022-12-13T04:14:35.797Z,101318.14
2022-12-13T04:17:05.537Z,101319.84
2022-12-13T04:19:35.308Z,101319.08
2022-12-13T04:22:06.614Z,101319.06
2022-12-13T04:24:37.615Z,101326.88
2022-12-13T04:27:07.658Z,101315.09
2022-12-13T04:29:37.145Z,101309.95
2022-12-13T04:32:25.969Z,101302.71
2022-12-13T04:34:39.901Z,101307.77
2022-12-13T04:37:10.704Z,101306.44
2022-12-13T04:39:40.453Z,101303.76
2022-12-13T04:42:12.026Z,101305.47
2022-12-13T04:44:46.029Z,101310.52
2022-12-13T04:47:13.212Z,101309.47
2022-12-13T04:49:43.041Z,101307.96
2022-12-13T04:52:12.839Z,101298.94
2022-12-13T04:54:44.569Z,101300.44
2022-12-13T04:57:14.769Z,101297.61
2022-12-13T04:59:46.137Z,101306.05
2022-12-13T05:02:23.364Z,101301.77
2022-12-13T05:04:47.499Z,101304.81
2022-12-13T05:07:18.952Z,101306.33
2022-12-13T05:09:48.688Z,101302.92
2022-12-13T05:12:22.513Z,101291.50
2022-12-13T05:14:49.873Z,101296.16
2022-12-13T05:17:19.429Z,101289.42
2022-12-13T05:19:49.172Z,101288.77
2022-12-13T05:22:20.840Z,101294.27
2022-12-13T05:24:50.946Z,101290.86
2022-12-13T05:27:24.007Z,101290.10
2022-12-13T05:29:57.669Z,101285.80
2022-12-13T05:32:23.459Z,101284.77
2022-12-13T05:34:53.160Z,101279.83
2022-12-13T05:37:22.908Z,101285.33
2022-12-13T05:39:52.640Z,101281.71
2022-12-13T05:42:22.220Z,101280.13
2022-12-13T05:44:54.168Z,101274.67
2022-12-13T05:47:23.936Z,101273.83
2022-12-13T05:49:53.909Z,101267.48
2022-12-13T05:52:30.364Z,101267.48
2022-12-13T05:55:00.996Z,101259.03
2022-12-13T05:57:30.585Z,101259.03
2022-12-13T06:00:00.644Z,101256.17
2022-12-13T06:02:30.557Z,101255.70
2022-12-13T06:05:00.400Z,101253.39
2022-12-13T06:07:30.145Z,101256.73
2022-12-13T06:10:10.644Z,101256.92
2022-12-13T06:12:32.729Z,101256.45
2022-12-13T06:15:02.982Z,101260.06
2022-12-13T06:17:36.931Z,101257.48
2022-12-13T06:20:23.372Z,101255.61
2022-12-13T06:22:40.143Z,101253.04
2022-12-13T06:25:31.170Z,101255.67
2022-12-13T06:27:41.758Z,101257.61
2022-12-13T06:30:13.375Z,101245.50
2022-12-13T06:32:44.095Z,101245.50
2022-12-13T06:35:29.038Z,101246.09
2022-12-13T06:37:45.159Z,101249.42
2022-12-13T06:40:17.643Z,101250.17
2022-12-13T06:42:46.428Z,101251.51
2022-12-13T06:45:15.926Z,101248.00
2022-12-13T06:47:46.023Z,101249.12
2022-12-13T06:50:15.784Z,101250.17
2022-12-13T06:52:47.508Z,101252.46
2022-12-13T06:55:23.509Z,101252.46
2022-12-13T06:57:49.215Z,101261.59
2022-12-13T07:00:22.515Z,101261.84
2022-12-13T07:02:55.681Z,101261.77
2022-12-13T07:05:27.239Z,101259.80
2022-12-13T07:07:57.039Z,101253.42
2022-12-13T07:10:26.503Z,101263.10
2022-12-13T07:12:56.553Z,101265.67
2022-12-13T07:15:26.482Z,101262.93
2022-12-13T07:17:56.277Z,101261.70
2022-12-13T07:20:25.721Z,101262.62
2022-12-13T07:22:58.821Z,101259.80
2022-12-13T07:25:29.469Z,101266.52
2022-12-13T07:28:02.866Z,101266.41
2022-12-13T07:30:40.653Z,101268.38
2022-12-13T07:33:07.900Z,101269.02
2022-12-13T07:35:38.391Z,101276.42
2022-12-13T07:38:11.373Z,101275.43
2022-12-13T07:40:42.132Z,101265.69
2022-12-13T07:43:12.026Z,101266.11
2022-12-13T07:45:41.774Z,101274.95
2022-12-13T07:48:11.594Z,101281.27
2022-12-13T07:50:41.415Z,101278.17
2022-12-13T07:53:11.534Z,101277.88
2022-12-13T07:55:41.279Z,101279.23
2022-12-13T07:58:14.007Z,101282.48
2022-12-13T08:00:46.852Z,101285.41
2022-12-13T08:03:24.404Z,101284.77
2022-12-13T08:05:49.305Z,101285.23
2022-12-13T08:08:20.754Z,101290.22
2022-12-13T08:10:50.493Z,101288.98
2022-12-13T08:13:20.933Z,101294.09
2022-12-13T08:15:51.286Z,101296.36
2022-12-13T08:18:20.987Z,101290.28
2022-12-13T08:20:51.024Z,101288.59
2022-12-13T08:23:21.033Z,101288.59
2022-12-13T08:25:55.109Z,101284.59
2022-12-13T08:28:26.062Z,101287.06
2022-12-13T08:30:55.965Z,101287.31
2022-12-13T08:33:25.698Z,101279.12
2022-12-13T08:35:55.437Z,101277.83
2022-12-13T08:38:25.529Z,101270.56
2022-12-13T08:40:56.769Z,101267.94
2022-12-13T08:43:26.578Z,101277.09
2022-12-13T08:46:01.242Z,101283.53
2022-12-13T08:48:28.289Z,101291.33
2022-12-13T08:51:03.566Z,101296.62
2022-12-13T08:53:40.822Z,101294.19
2022-12-13T08:56:10.665Z,101300.80
2022-12-13T08:58:41.065Z,101295.42
2022-12-13T09:01:12.359Z,101302.54
2022-12-13T09:03:42.153Z,101298.77
2022-12-13T09:06:14.788Z,101302.16
2022-12-13T09:08:51.753Z,101299.50
2022-12-13T09:11:20.790Z,101296.13
2022-12-13T09:13:48.777Z,101295.78
2022-12-13T09:16:24.295Z,101291.82
2022-12-13T09:18:56.202Z,101297.25
2022-12-13T09:21:30.942Z,101298.91
2022-12-13T09:24:01.762Z,101306.32
2022-12-13T09:26:37.717Z,101302.07
2022-12-13T09:29:10.533Z,101309.64
2022-12-13T09:31:34.710Z,101310.91
2022-12-13T09:34:06.399Z,101309.00
2022-12-13T09:36:36.628Z,101313.30
2022-12-13T09:39:06.827Z,101317.15
2022-12-13T09:41:40.728Z,101319.73
2022-12-13T09:44:32.968Z,101325.13
2022-12-13T09:47:03.970Z,101318.28
2022-12-13T09:49:38.590Z,101319.82
2022-12-13T09:52:21.194Z,101315.16
2022-12-13T09:54:49.221Z,101309.73
2022-12-13T09:57:32.401Z,101295.67
2022-12-13T09:59:58.648Z,101295.67
2022-12-13T10:02:31.689Z,101288.74
2022-12-13T10:05:34.287Z,101291.37
2022-12-13T10:08:02.274Z,101290.60
2022-12-13T10:10:31.949Z,101276.50
2022-12-13T10:13:16.195Z,101279.05
2022-12-13T10:15:49.064Z,101279.05
2022-12-13T10:18:21.870Z,101274.34
2022-12-13T10:20:51.964Z,101270.48
2022-12-13T10:24:06.955Z,101267.30
2022-12-13T10:26:03.331Z,101267.27
2022-12-13T10:28:33.000Z,101254.28
2022-12-13T10:31:03.425Z,101254.28
2022-12-13T10:33:35.728Z,101251.17
2022-12-13T10:36:11.090Z,101255.27
2022-12-13T10:38:43.352Z,101247.34
2022-12-13T10:41:38.551Z,101236.03
2022-12-13T10:44:15.373Z,101236.38
2022-12-13T10:46:50.868Z,101229.56
2022-12-13T10:49:23.875Z,101233.34
2022-12-13T10:51:54.730Z,101223.10
2022-12-13T10:54:38.347Z,101220.07
2022-12-13T10:57:04.471Z,101224.94
2022-12-13T10:59:40.121Z,101217.97
2022-12-13T11:02:36.263Z,101216.78
2022-12-13T11:05:28.260Z,101210.33
2022-12-13T11:08:01.118Z,101216.51
2022-12-13T11:10:31.184Z,101217.09
2022-12-13T11:13:06.288Z,101212.62
2022-12-13T11:15:39.100Z,101219.02
2022-12-13T11:18:14.064Z,101216.56
2022-12-13T11:20:55.980Z,101215.25
2022-12-13T11:23:34.286Z,101208.39
2022-12-13T11:26:12.102Z,101208.39
2022-12-13T11:28:47.819Z,101209.25
2022-12-13T11:31:36.962Z,101201.40
2022-12-13T11:34:22.717Z,101193.17
2022-12-13T11:37:04.305Z,101193.33
2022-12-13T11:39:39.888Z,101182.02
2022-12-13T11:42:19.853Z,101182.02
2022-12-13T11:44:58.481Z,101194.08
2022-12-13T11:47:34.079Z,101190.23
2022-12-13T11:50:08.329Z,101186.94
2022-12-13T11:52:44.584Z,101186.45
2022-12-13T11:55:22.654Z,101176.73
2022-12-13T11:58:04.942Z,101177.85
2022-12-13T12:00:49.284Z,101175.11
2022-12-13T12:03:24.702Z,101166.83
2022-12-13T12:06:11.960Z,101172.47
2022-12-13T12:08:47.947Z,101171.52
2022-12-13T12:11:38.891Z,101161.52
2022-12-13T12:14:14.087Z,101171.12
2022-12-13T12:16:56.225Z,101170.28
2022-12-13T12:19:33.007Z,101165.30
2022-12-13T12:22:17.231Z,101160.89
2022-12-13T12:25:05.060Z,101163.64
2022-12-13T12:27:37.831Z,101164.70
2022-12-13T12:30:13.594Z,101164.79
2022-12-13T12:32:45.513Z,101154.81
2022-12-13T12:35:23.931Z,101157.55
2022-12-13T12:38:05.609Z,101153.67
2022-12-13T12:43:38.218Z,101154.84
2022-12-13T12:46:38.449Z,101148.72
2022-12-13T12:49:12.396Z,101160.27
2022-12-13T12:51:57.576Z,101148.80
2022-12-13T12:54:35.398Z,101151.19
2022-12-13T12:57:19.699Z,101155.47
2022-12-13T12:59:56.777Z,101155.22
2022-12-13T13:02:29.053Z,101151.41
2022-12-13T13:05:01.571Z,101141.25
2022-12-13T13:07:40.061Z,101152.56
2022-12-13T13:10:26.092Z,101145.66
2022-12-13T13:12:43.318Z,101149.72
2022-12-13T13:15:35.666Z,101149.72
2022-12-13T13:18:28.033Z,101147.94
2022-12-13T13:21:26.490Z,101146.55
2022-12-13T13:24:11.268Z,101148.75
2022-12-13T13:26:43.499Z,101142.22
2022-12-13T13:29:28.737Z,101146.48
2022-12-13T13:32:28.520Z,101145.77
2022-12-13T13:34:48.184Z,101142.38
2022-12-13T13:37:24.653Z,101129.56
2022-12-13T13:40:00.066Z,101124.94
2022-12-13T13:42:30.658Z,101125.77
2022-12-13T13:45:23.558Z,101130.28
2022-12-13T13:48:23.729Z,101117.69
2022-12-13T13:50:57.040Z,101112.08
2022-12-13T13:53:32.521Z,101112.97
2022-12-13T13:56:05.009Z,101119.55
2022-12-13T13:58:54.076Z,101112.09
2022-12-13T14:01:45.949Z,101112.09
2022-12-13T14:04:38.263Z,101103.95
2022-12-13T14:07:18.868Z,101091.45
2022-12-13T14:10:08.184Z,101088.16
2022-12-13T14:13:06.249Z,101077.63
2022-12-13T14:16:00.416Z,101075.58
2022-12-13T14:18:50.975Z,101082.75
2022-12-13T14:21:41.522Z,101079.19
2022-12-13T14:24:23.163Z,101084.31
2022-12-13T14:27:01.893Z,101088.41
2022-12-13T14:29:37.606Z,101095.29
2022-12-13T14:35:26.259Z,101090.27
2022-12-13T14:37:39.736Z,101093.42
2022-12-13T14:40:32.633Z,101090.05
2022-12-13T14:43:02.530Z,101095.91
2022-12-13T14:45:36.411Z,101091.70
2022-12-13T14:48:28.682Z,101089.55
2022-12-13T14:50:50.603Z,101088.14
2022-12-13T14:53:26.752Z,101079.38
2022-12-13T14:56:08.685Z,101079.53
2022-12-13T14:58:39.486Z,101082.70
2022-12-13T15:01:29.419Z,101080.89
2022-12-13T15:04:22.628Z,101085.20
2022-12-13T15:07:04.417Z,101081.67
2022-12-13T15:09:40.150Z,101077.58
2022-12-13T15:12:15.318Z,101073.22
2022-12-13T15:14:46.918Z,101076.47
2022-12-13T15:17:36.598Z,101072.83
2022-12-13T15:20:30.859Z,101072.65
2022-12-13T15:23:08.325Z,101065.14
2022-12-13T15:25:39.618Z,101067.14
2022-12-13T15:28:18.222Z,101054.34
2022-12-13T15:30:45.165Z,101054.34
2022-12-13T15:33:21.065Z,101058.95
2022-12-13T15:35:53.402Z,101045.96
2022-12-13T15:38:28.327Z,101051.20
2022-12-13T15:40:54.957Z,101050.03
2022-12-13T15:43:28.071Z,101048.11
2022-12-13T15:45:58.084Z,101033.96
2022-12-13T15:48:33.835Z,101033.96
2022-12-13T15:51:28.727Z,101026.64
2022-12-13T15:54:09.354Z,101021.65
2022-12-13T15:56:44.108Z,101016.65
2022-12-13T15:59:25.534Z,101022.53
2022-12-13T16:01:58.423Z,101025.39
2022-12-13T16:04:30.017Z,101022.31
2022-12-13T16:07:01.649Z,101015.80
2022-12-13T16:09:34.457Z,101008.44
2022-12-13T16:12:07.869Z,101009.55
2022-12-13T16:14:40.926Z,101003.13
2022-12-13T16:17:24.902Z,101004.02
2022-12-13T16:19:58.335Z,101005.53
2022-12-13T16:22:27.849Z,101005.53
2022-12-13T16:24:57.761Z,101008.78
2022-12-13T16:27:27.501Z,101004.09
2022-12-13T16:29:57.538Z,101001.92
2022-12-13T16:32:27.235Z,100995.89
2022-12-13T16:34:56.981Z,101003.45
2022-12-13T16:37:27.620Z,100994.20
2022-12-13T16:39:57.137Z,100994.78
2022-12-13T16:42:27.324Z,100997.36
2022-12-13T16:45:32.465Z,100992.95
2022-12-13T16:47:41.790Z,100994.74
2022-12-13T16:50:04.323Z,100992.64
2022-12-13T16:52:34.069Z,100989.13
2022-12-13T16:55:03.820Z,100981.58
2022-12-13T16:57:33.612Z,100976.72
2022-12-13T17:00:03.984Z,100980.02
2022-12-13T17:02:33.793Z,100977.60
2022-12-13T17:05:04.014Z,100975.86
2022-12-13T17:07:35.332Z,100967.75
2022-12-13T17:10:06.869Z,100963.51
2022-12-13T17:12:36.688Z,100966.13
2022-12-13T17:15:09.088Z,100965.78
2022-12-13T17:17:40.541Z,100970.78
2022-12-13T17:20:18.081Z,100968.73
2022-12-13T17:22:48.039Z,100973.89
2022-12-13T17:25:17.889Z,100976.72
2022-12-13T17:27:47.644Z,100975.73
2022-12-13T17:30:19.014Z,100981.72
2022-12-13T17:32:48.835Z,100989.38
2022-12-13T17:35:19.095Z,100993.89
2022-12-13T17:37:48.911Z,100985.18
2022-12-13T17:40:18.885Z,100987.82
2022-12-13T17:42:52.502Z,100998.30
2022-12-13T17:45:23.033Z,100989.19
2022-12-13T17:47:52.778Z,100989.19
2022-12-13T17:50:22.277Z,100989.91
2022-12-13T17:52:52.012Z,100986.61
2022-12-13T17:55:21.773Z,100986.45
2022-12-13T17:57:51.818Z,100989.97
2022-12-13T18:00:23.421Z,100988.31
2022-12-13T18:02:55.433Z,100983.84
2022-12-13T18:05:27.577Z,100985.14
2022-12-13T18:07:57.616Z,100986.80
2022-12-13T18:10:29.977Z,100987.28
2022-12-13T18:12:58.941Z,100981.71
2022-12-13T18:15:28.784Z,100981.22
2022-12-13T18:18:11.329Z,100979.87
2022-12-13T18:20:30.275Z,100979.70
2022-12-13T18:23:00.019Z,100978.01
2022-12-13T18:25:30.733Z,100977.30
2022-12-13T18:28:01.304Z,100977.69
2022-12-13T18:30:32.630Z,100972.25
2022-12-13T18:33:02.677Z,100977.52
2022-12-13T18:35:32.610Z,100970.06
2022-12-13T18:38:02.332Z,100964.36
2022-12-13T18:40:32.451Z,100965.07
2022-12-13T18:43:02.261Z,100959.31
2022-12-13T18:45:32.068Z,100968.00
2022-12-13T18:48:01.882Z,100963.00
2022-12-13T18:50:31.632Z,100960.38
2022-12-13T18:53:01.139Z,100958.55
2022-12-13T18:55:31.374Z,100944.90
2022-12-13T18:58:01.109Z,100944.90
2022-12-13T19:00:30.884Z,100944.17
2022-12-13T19:03:01.344Z,100948.11
2022-12-13T19:05:31.104Z,100946.20
2022-12-13T19:08:00.844Z,100946.91
2022-12-13T19:10:30.630Z,100944.95
2022-12-13T19:13:00.888Z,100950.21
2022-12-13T19:15:30.698Z,100951.59
2022-12-13T19:18:00.469Z,100949.02
2022-12-13T19:20:31.022Z,100946.14
2022-12-13T19:23:00.756Z,100942.00
2022-12-13T19:25:30.500Z,100938.02
2022-12-13T19:28:00.274Z,100936.38
2022-12-13T19:30:29.791Z,100929.74
2022-12-13T19:32:59.837Z,100927.87
2022-12-13T19:35:29.885Z,100927.87
2022-12-13T19:38:00.103Z,100921.98
2022-12-13T19:40:29.929Z,100923.94
2022-12-13T19:42:59.663Z,100920.02
2022-12-13T19:45:29.411Z,100914.92
2022-12-13T19:47:59.465Z,100905.84
2022-12-13T19:50:30.249Z,100905.65
2022-12-13T19:53:00.073Z,100907.80
2022-12-13T19:55:29.813Z,100896.27
2022-12-13T19:58:00.705Z,100904.77
2022-12-13T20:00:30.544Z,100893.86
2022-12-13T20:03:00.314Z,100886.97
2022-12-13T20:05:30.061Z,100879.98
2022-12-13T20:08:00.359Z,100874.70
2022-12-13T20:10:30.132Z,100864.27
2022-12-13T20:13:00.235Z,100861.17
2022-12-13T20:15:30.648Z,100857.16
2022-12-13T20:18:00.936Z,100859.70
2022-12-13T20:20:47.039Z,100859.98
2022-12-13T20:23:02.428Z,100857.02
2022-12-13T20:25:32.178Z,100844.50
2022-12-13T20:28:01.926Z,100853.78
2022-12-13T20:30:32.850Z,100840.96
2022-12-13T20:33:02.691Z,100834.36
2022-12-13T20:35:32.428Z,100842.22
2022-12-13T20:38:03.342Z,100833.66
2022-12-13T20:40:33.655Z,100831.97
2022-12-13T20:43:03.396Z,100823.07
2022-12-13T20:45:33.772Z,100824.58
2022-12-13T20:48:03.530Z,100818.08
2022-12-13T20:50:32.963Z,100821.39
2022-12-13T20:53:03.012Z,100820.89
2022-12-13T20:55:35.345Z,100811.18
2022-12-13T20:58:06.368Z,100806.20
2022-12-13T21:00:36.200Z,100793.86
2022-12-13T21:03:06.007Z,100783.73
2022-12-13T21:05:35.743Z,100779.42
2022-12-13T21:08:24.614Z,100777.75
2022-12-13T21:11:04.929Z,100785.20
2022-12-13T21:13:29.718Z,100778.81
2022-12-13T21:16:02.491Z,100770.84
2022-12-13T21:18:32.294Z,100783.35
2022-12-13T21:21:02.111Z,100772.75
2022-12-13T21:23:31.915Z,100773.31
2022-12-13T21:26:01.681Z,100759.46
2022-12-13T21:28:32.005Z,100759.46
2022-12-13T21:31:04.556Z,100765.13
2022-12-13T21:33:35.629Z,100766.34
2022-12-13T21:36:16.676Z,100750.91
2022-12-13T21:38:46.425Z,100755.83
2022-12-13T21:41:16.323Z,100756.13
2022-12-13T21:43:48.267Z,100740.97
2022-12-13T21:46:19.859Z,100735.67
2022-12-13T21:48:50.928Z,100741.77
2022-12-13T21:51:23.512Z,100741.63
2022-12-13T21:53:54.699Z,100743.70
2022-12-13T21:56:44.687Z,100739.96
2022-12-13T21:59:20.669Z,100742.45
2022-12-13T22:02:12.774Z,100743.92
2022-12-13T22:04:48.485Z,100745.97
2022-12-13T22:07:20.503Z,100745.78
2022-12-13T22:09:51.507Z,100737.12
2022-12-13T22:12:29.922Z,100732.07
2022-12-13T22:14:59.725Z,100732.15
2022-12-13T22:17:35.192Z,100727.78
2022-12-13T22:20:02.332Z,100730.18
2022-12-13T22:22:33.478Z,100732.94
2022-12-13T22:25:04.050Z,100727.05
2022-12-13T22:27:33.811Z,100726.84
2022-12-13T22:30:03.561Z,100730.86
2022-12-13T22:32:33.876Z,100723.27
2022-12-13T22:35:04.725Z,100723.92
2022-12-13T22:37:34.794Z,100726.39
2022-12-13T22:40:07.841Z,100721.50
2022-12-13T22:42:37.637Z,100712.73
2022-12-13T22:45:08.776Z,100710.95
2022-12-13T22:47:38.519Z,100710.95
2022-12-13T22:50:11.600Z,100713.50
2022-12-13T22:52:41.321Z,100697.66
2022-12-13T22:55:10.979Z,100688.21
2022-12-13T22:57:40.715Z,100686.27
2022-12-13T23:00:13.013Z,100689.72
2022-12-13T23:02:42.817Z,100684.94
2022-12-13T23:05:12.580Z,100680.19
2022-12-13T23:07:42.344Z,100679.04
2022-12-13T23:10:15.108Z,100681.30
2022-12-13T23:13:03.243Z,100674.67
2022-12-13T23:15:34.484Z,100685.42
2022-12-13T23:18:04.310Z,100672.54
2022-12-13T23:20:35.240Z,100674.59
2022-12-13T23:23:05.077Z,100669.57
2022-12-13T23:25:34.822Z,100674.08
2022-12-13T23:28:04.851Z,100669.66
2022-12-13T23:30:34.383Z,100670.11
2022-12-13T23:33:04.193Z,100655.61
2022-12-13T23:35:34.008Z,100655.61
2022-12-13T23:38:03.752Z,100658.95
2022-12-13T23:40:33.513Z,100654.66
2022-12-13T23:43:03.000Z,100647.47
2022-12-13T23:45:32.749Z,100644.53
2022-12-13T23:48:02.481Z,100638.70
2022-12-13T23:50:31.935Z,100638.70
2022-12-13T23:53:01.658Z,100632.47
2022-12-13T23:55:31.394Z,100630.72
2022-12-13T23:58:01.153Z,100623.56
